This is the latest recevied weather packets stored in our database for station/object JH7UAX-10. If no packets are shown the sender has not sent any weather packets the latest 10 day(s).
| Time | Temp. | Humidity | Pressure | Rain* | Wind** | Luminosity | Snow |
|---|---|---|---|---|---|---|---|
| 1777987805 | 12.22° C | 63% | 1030.2 hPa | 0 mm | - | - | - |
| 1777987380 | 12.22° C | 63% | 1030.1 hPa | 0 mm | - | - | - |
| 1777986905 | 12.22° C | 63% | 1030 hPa | 0 mm | - | - | - |
| 1777986479 | 12.22° C | 64% | 1029.7 hPa | 0 mm | - | - | - |
| 1777986005 | 12.22° C | 65% | 1029.6 hPa | 0 mm | - | - | - |
| 1777985579 | 12.22° C | 65% | 1029.4 hPa | 0 mm | - | - | - |
| 1777984679 | 12.78° C | 62% | 1029.4 hPa | 0 mm | - | - | - |
| 1777984204 | 12.78° C | 63% | 1029.3 hPa | 0 mm | - | - | - |
| 1777983779 | 12.78° C | 63% | 1029.2 hPa | 0 mm | - | - | - |
| 1777982878 | 12.78° C | 65% | 1029.3 hPa | 0 mm | - | - | - |
| 1777982405 | 12.78° C | 67% | 1029.3 hPa | 0 mm | - | - | - |
| 1777981979 | 12.78° C | 68% | 1029.4 hPa | 0 mm | - | - | - |
| 1777981079 | 12.78° C | 68% | 1029.5 hPa | 0 mm | - | - | - |
| 1777980604 | 12.78° C | 67% | 1029.5 hPa | 0 mm | - | - | - |
| 1777980179 | 12.78° C | 68% | 1029.6 hPa | 0 mm | - | - | - |
| 1777979706 | 12.78° C | 70% | 1029.7 hPa | 0 mm | - | - | - |
| 1777979278 | 13.33° C | 67% | 1029.6 hPa | 0 mm | - | - | - |
| 1777978806 | 13.33° C | 66% | 1029.6 hPa | 0 mm | - | - | - |
| 1777978378 | 13.89° C | 64% | 1029.5 hPa | 0 mm | - | - | - |
| 1777977906 | 13.89° C | 63% | 1029.6 hPa | 0 mm | - | - | - |
| 1777977478 | 13.89° C | 62% | 1029.4 hPa | 0 mm | - | - | - |
| 1777976578 | 13.33° C | 65% | 1029.2 hPa | 0 mm | - | - | - |
| 1777975679 | 13.89° C | 66% | 1029.2 hPa | 0 mm | - | - | - |
| 1777974779 | 14.44° C | 67% | 1029 hPa | 0 mm | - | - | - |
| 1777973879 | 15° C | 63% | 1029 hPa | 0 mm | - | - | - |
* Rain latest hour (hover to see other rain measurements)
** Current wind speed in m/s (hover to see current wind gust speed)